createdAt,value
2022-12-11T00:01:12.927Z,20.80
2022-12-11T00:04:02.864Z,19.65
2022-12-11T00:06:53.373Z,21.73
2022-12-11T00:09:43.396Z,19.17
2022-12-11T00:12:33.592Z,18.17
2022-12-11T00:15:26.261Z,19.63
2022-12-11T00:18:16.129Z,19.55
2022-12-11T00:21:08.960Z,17.67
2022-12-11T00:23:59.211Z,16.48
2022-12-11T00:26:49.815Z,17.50
2022-12-11T00:29:39.664Z,16.83
2022-12-11T00:32:33.688Z,17.33
2022-12-11T00:35:26.744Z,18.58
2022-12-11T00:38:19.401Z,18.63
2022-12-11T00:41:09.716Z,19.77
2022-12-11T00:43:59.527Z,19.90
2022-12-11T00:46:49.568Z,19.23
2022-12-11T00:49:39.501Z,19.25
2022-12-11T00:52:29.721Z,18.98
2022-12-11T00:55:19.763Z,18.58
2022-12-11T00:58:09.751Z,18.92
2022-12-11T01:01:06.999Z,19.50
2022-12-11T01:03:57.442Z,18.75
2022-12-11T01:06:47.442Z,20.45
2022-12-11T01:09:55.986Z,20.33
2022-12-11T01:12:46.223Z,17.70
2022-12-11T01:15:43.015Z,18.90
2022-12-11T01:18:33.182Z,19.02
2022-12-11T01:21:23.119Z,19.95
2022-12-11T01:24:12.902Z,18.98
2022-12-11T01:27:02.660Z,20.55
2022-12-11T01:29:53.182Z,18.27
2022-12-11T01:32:43.056Z,20.30
2022-12-11T01:35:32.906Z,19.65
2022-12-11T01:38:22.850Z,20.30
2022-12-11T01:41:13.127Z,20.25
2022-12-11T01:44:28.103Z,20.55
2022-12-11T01:47:18.459Z,20.23
2022-12-11T01:50:08.735Z,19.92
2022-12-11T01:52:59.331Z,20.70
2022-12-11T01:55:53.522Z,20.25
2022-12-11T01:58:52.052Z,24.58
2022-12-11T02:01:51.028Z,23.85
2022-12-11T02:04:42.432Z,24.80
2022-12-11T02:07:38.864Z,24.08
2022-12-11T02:10:57.769Z,23.02
2022-12-11T02:14:02.625Z,23.27
2022-12-11T02:17:01.305Z,21.42
2022-12-11T02:20:00.231Z,23.52
2022-12-11T02:23:12.491Z,22.30
2022-12-11T02:26:19.973Z,21.08
2022-12-11T02:29:20.613Z,20.88
2022-12-11T02:32:16.842Z,21.35
2022-12-11T02:35:10.507Z,20.08
2022-12-11T02:38:08.012Z,20.77
2022-12-11T02:40:59.688Z,20.85
2022-12-11T02:43:51.598Z,19.83
2022-12-11T02:46:44.150Z,19.70
2022-12-11T02:49:35.164Z,20.63
2022-12-11T02:52:26.899Z,21.77
2022-12-11T02:55:17.873Z,21.38
2022-12-11T02:58:21.396Z,23.67
2022-12-11T03:01:11.750Z,23.50
2022-12-11T03:04:02.274Z,23.20
2022-12-11T03:06:56.403Z,22.80
2022-12-11T03:09:48.536Z,23.00
2022-12-11T03:12:42.550Z,23.50
2022-12-11T03:18:41.106Z,22.50
2022-12-11T03:21:38.296Z,23.27
2022-12-11T03:24:52.428Z,24.55
2022-12-11T03:27:50.493Z,24.38
2022-12-11T03:30:41.857Z,23.63
2022-12-11T03:33:37.682Z,22.52
2022-12-11T03:36:33.451Z,24.77
2022-12-11T03:39:33.243Z,24.15
2022-12-11T03:42:24.969Z,24.27
2022-12-11T03:45:16.050Z,25.08
2022-12-11T03:48:08.832Z,22.52
2022-12-11T03:51:00.529Z,23.63
2022-12-11T03:53:51.979Z,25.55
2022-12-11T03:56:44.246Z,23.80
2022-12-11T03:59:34.542Z,24.92
2022-12-11T04:02:24.995Z,23.73
2022-12-11T04:05:15.165Z,24.63
2022-12-11T04:08:05.484Z,24.02
2022-12-11T04:11:14.613Z,25.95
2022-12-11T04:14:26.494Z,24.63
2022-12-11T04:17:36.789Z,24.65
2022-12-11T04:20:45.494Z,24.10
2022-12-11T04:23:54.244Z,26.02
2022-12-11T04:26:46.567Z,24.75
2022-12-11T04:29:36.743Z,26.83
2022-12-11T04:32:26.571Z,26.42
2022-12-11T04:35:16.537Z,26.55
2022-12-11T04:38:06.716Z,25.17
2022-12-11T04:41:01.000Z,27.23
2022-12-11T04:43:50.871Z,26.65
2022-12-11T04:46:40.979Z,26.25
2022-12-11T04:49:31.330Z,25.67
2022-12-11T04:52:21.434Z,26.30
2022-12-11T04:55:12.498Z,25.80
2022-12-11T04:58:02.983Z,24.33
2022-12-11T05:00:53.145Z,26.52
2022-12-11T05:03:43.834Z,25.52
2022-12-11T05:06:33.809Z,25.50
2022-12-11T05:09:23.727Z,25.42
2022-12-11T05:12:13.733Z,24.40
2022-12-11T05:15:04.207Z,25.25
2022-12-11T05:17:54.435Z,25.05
2022-12-11T05:20:44.619Z,25.15
2022-12-11T05:23:35.281Z,25.30
2022-12-11T05:26:25.164Z,25.73
2022-12-11T05:29:14.905Z,24.83
2022-12-11T05:32:04.924Z,25.40
2022-12-11T05:34:55.144Z,23.23
2022-12-11T05:37:45.504Z,24.08
2022-12-11T05:40:35.577Z,23.92
2022-12-11T05:43:27.170Z,23.25
2022-12-11T05:46:20.606Z,24.83
2022-12-11T05:49:11.204Z,23.52
2022-12-11T05:52:01.139Z,24.27
2022-12-11T05:54:51.061Z,24.10
2022-12-11T05:57:41.685Z,23.92
2022-12-11T06:00:35.987Z,23.52
2022-12-11T06:03:27.868Z,22.90
2022-12-11T06:06:17.735Z,23.65
2022-12-11T06:09:08.062Z,23.52
2022-12-11T06:11:57.858Z,23.30
2022-12-11T06:14:47.755Z,23.20
2022-12-11T06:17:37.991Z,23.05
2022-12-11T06:20:31.459Z,24.63
2022-12-11T06:26:11.959Z,23.63
2022-12-11T06:29:02.546Z,22.77
2022-12-11T06:31:54.466Z,23.20
2022-12-11T06:34:44.903Z,24.40
2022-12-11T06:37:36.205Z,23.35
2022-12-11T06:40:26.380Z,23.92
2022-12-11T06:43:16.437Z,26.98
2022-12-11T06:46:08.944Z,28.02
2022-12-11T06:48:59.359Z,28.17
2022-12-11T06:51:49.526Z,26.70
2022-12-11T06:54:39.626Z,25.17
2022-12-11T06:57:29.509Z,25.23
2022-12-11T07:00:19.630Z,26.48
2022-12-11T07:03:10.096Z,25.83
2022-12-11T07:06:03.409Z,27.50
2022-12-11T07:08:53.402Z,26.83
2022-12-11T07:11:43.683Z,26.60
2022-12-11T07:14:33.958Z,26.35
2022-12-11T07:17:23.888Z,27.17
2022-12-11T07:20:13.676Z,26.77
2022-12-11T07:23:03.699Z,26.38
2022-12-11T07:25:54.297Z,27.50
2022-12-11T07:28:45.316Z,27.25
2022-12-11T07:31:35.971Z,26.17
2022-12-11T07:34:26.177Z,28.20
2022-12-11T07:37:16.071Z,27.02
2022-12-11T07:40:06.487Z,28.33
2022-12-11T07:42:56.459Z,28.58
2022-12-11T07:45:46.687Z,29.50
2022-12-11T07:48:38.951Z,28.02
2022-12-11T07:51:31.268Z,31.17
2022-12-11T07:54:21.574Z,31.55
2022-12-11T07:57:14.162Z,30.08
2022-12-11T08:00:05.300Z,28.23
2022-12-11T08:03:02.469Z,29.42
2022-12-11T08:05:53.369Z,30.65
2022-12-11T08:08:44.210Z,30.52
2022-12-11T08:11:34.633Z,29.58
2022-12-11T08:14:26.000Z,28.48
2022-12-11T08:17:16.148Z,30.27
2022-12-11T08:20:06.354Z,30.55
2022-12-11T08:22:59.291Z,30.63
2022-12-11T08:25:49.542Z,31.02
2022-12-11T08:28:39.591Z,33.25
2022-12-11T08:31:30.373Z,32.58
2022-12-11T08:34:20.678Z,32.78
2022-12-11T08:37:10.785Z,32.15
2022-12-11T08:40:00.600Z,32.10
2022-12-11T08:42:51.653Z,32.65
2022-12-11T08:45:41.550Z,33.20
2022-12-11T08:48:32.064Z,31.92
2022-12-11T08:51:25.029Z,30.83
2022-12-11T08:54:15.213Z,30.02
2022-12-11T08:57:05.461Z,29.42
2022-12-11T08:59:55.443Z,29.40
2022-12-11T09:02:45.403Z,30.95
2022-12-11T09:05:38.429Z,30.75
2022-12-11T09:08:28.752Z,31.63
2022-12-11T09:11:27.485Z,32.55
2022-12-11T09:14:17.363Z,38.92
2022-12-11T09:17:07.438Z,31.45
2022-12-11T09:19:57.562Z,32.90
2022-12-11T09:22:47.556Z,32.92
2022-12-11T09:25:40.463Z,35.33
2022-12-11T09:28:31.146Z,33.43
2022-12-11T09:31:28.914Z,30.27
2022-12-11T09:34:18.818Z,30.13
2022-12-11T09:37:09.073Z,33.88
2022-12-11T09:40:02.635Z,32.63
2022-12-11T09:43:06.314Z,31.48
2022-12-11T09:45:57.260Z,30.83
2022-12-11T09:48:49.240Z,30.92
2022-12-11T09:52:05.331Z,28.90
2022-12-11T09:54:59.581Z,31.98
2022-12-11T09:58:05.239Z,30.90
2022-12-11T10:01:23.341Z,30.88
2022-12-11T10:04:19.042Z,31.83
2022-12-11T10:07:19.046Z,29.90
2022-12-11T10:10:28.173Z,33.03
2022-12-11T10:13:30.318Z,32.05
2022-12-11T10:16:38.978Z,29.17
2022-12-11T10:19:31.805Z,28.33
2022-12-11T10:22:26.929Z,28.27
2022-12-11T10:25:41.658Z,28.27
2022-12-11T10:28:31.725Z,30.63
2022-12-11T10:31:39.117Z,28.95
2022-12-11T10:34:44.485Z,29.73
2022-12-11T10:37:34.522Z,28.33
2022-12-11T10:40:26.555Z,28.52
2022-12-11T10:43:17.161Z,30.08
2022-12-11T10:46:16.122Z,30.00
2022-12-11T10:49:20.511Z,28.20
2022-12-11T10:55:22.440Z,27.73
2022-12-11T10:58:21.993Z,27.25
2022-12-11T11:01:26.859Z,27.38
2022-12-11T11:04:39.362Z,25.40
2022-12-11T11:07:34.625Z,24.88
2022-12-11T11:10:28.406Z,23.73
2022-12-11T11:13:21.779Z,25.73
2022-12-11T11:16:15.796Z,25.13
2022-12-11T11:19:06.940Z,25.08
2022-12-11T11:22:01.226Z,24.85
2022-12-11T11:24:59.098Z,27.02
2022-12-11T11:28:07.120Z,25.75
2022-12-11T11:30:59.761Z,26.50
2022-12-11T11:33:56.044Z,31.20
2022-12-11T11:36:57.285Z,25.98
2022-12-11T11:39:50.151Z,25.70
2022-12-11T11:43:05.974Z,25.23
2022-12-11T11:46:06.395Z,26.15
2022-12-11T11:49:30.635Z,28.38
2022-12-11T11:55:45.540Z,23.60
2022-12-11T11:58:57.526Z,23.73
2022-12-11T12:01:47.766Z,24.27
2022-12-11T12:04:38.085Z,24.02
2022-12-11T12:07:40.639Z,27.00
2022-12-11T12:10:58.487Z,25.42
2022-12-11T12:14:29.098Z,26.90
2022-12-11T12:17:31.439Z,24.35
2022-12-11T12:20:26.093Z,25.00
2022-12-11T12:23:22.337Z,25.80
2022-12-11T12:26:21.836Z,25.85
2022-12-11T12:30:05.563Z,24.73
2022-12-11T12:33:12.007Z,25.55
2022-12-11T12:36:21.518Z,25.17
2022-12-11T12:39:40.408Z,26.20
2022-12-11T12:42:30.763Z,25.50
2022-12-11T12:45:40.263Z,26.52
2022-12-11T12:48:30.981Z,25.73
2022-12-11T12:51:21.426Z,25.35
2022-12-11T12:54:15.773Z,25.95
2022-12-11T12:57:06.195Z,26.88
2022-12-11T12:59:56.250Z,25.48
2022-12-11T13:02:50.793Z,25.45
2022-12-11T13:05:43.422Z,24.10
2022-12-11T13:08:44.983Z,25.27
2022-12-11T13:11:39.629Z,23.30
2022-12-11T13:14:32.869Z,24.30
2022-12-11T13:17:37.024Z,25.55
2022-12-11T13:20:59.623Z,23.90
2022-12-11T13:23:50.068Z,26.90
2022-12-11T13:26:41.087Z,26.50
2022-12-11T13:29:39.925Z,25.23
2022-12-11T13:32:31.107Z,28.98
2022-12-11T13:35:21.451Z,26.63
2022-12-11T13:38:20.868Z,26.73
2022-12-11T13:41:12.112Z,26.35
2022-12-11T13:44:02.902Z,27.40
2022-12-11T13:46:55.532Z,27.40
2022-12-11T13:49:49.972Z,28.55
2022-12-11T13:52:40.828Z,25.85
2022-12-11T13:55:33.354Z,28.10
2022-12-11T13:58:23.948Z,26.33
2022-12-11T14:01:24.222Z,28.02
2022-12-11T14:04:19.711Z,25.02
2022-12-11T14:07:11.471Z,24.52
2022-12-11T14:10:09.339Z,25.50
2022-12-11T14:13:03.960Z,23.17
2022-12-11T14:15:54.612Z,23.45
2022-12-11T14:18:44.931Z,24.92
2022-12-11T14:21:36.245Z,23.30
2022-12-11T14:24:27.176Z,24.95
2022-12-11T14:27:18.617Z,25.48
2022-12-11T14:30:12.573Z,23.63
2022-12-11T14:33:05.511Z,24.50
2022-12-11T14:35:56.006Z,24.02
2022-12-11T14:38:49.292Z,23.92
2022-12-11T14:41:46.945Z,24.00
2022-12-11T14:44:50.338Z,23.10
2022-12-11T14:47:43.172Z,16.30
2022-12-11T14:50:46.431Z,22.50
2022-12-11T14:53:46.489Z,22.60
2022-12-11T14:56:37.169Z,21.13
2022-12-11T14:59:32.293Z,26.02
2022-12-11T15:02:32.565Z,25.02
2022-12-11T15:05:22.830Z,24.17
2022-12-11T15:08:13.148Z,22.23
2022-12-11T15:11:17.492Z,22.58
2022-12-11T15:14:11.716Z,23.50
2022-12-11T15:17:02.290Z,25.63
2022-12-11T15:19:56.960Z,26.50
2022-12-11T15:22:47.520Z,24.30
2022-12-11T15:25:38.178Z,23.30
2022-12-11T15:28:37.190Z,23.15
2022-12-11T15:31:30.908Z,23.35
2022-12-11T15:34:22.966Z,22.63
2022-12-11T15:37:24.275Z,21.80
2022-12-11T15:40:14.898Z,21.13
2022-12-11T15:43:05.298Z,20.40
2022-12-11T15:45:55.365Z,21.00
2022-12-11T15:48:45.712Z,21.20
2022-12-11T15:51:41.133Z,21.75
2022-12-11T15:54:33.199Z,22.92
2022-12-11T15:57:24.501Z,21.17
2022-12-11T16:00:16.634Z,22.10
2022-12-11T16:03:11.073Z,26.40
2022-12-11T16:08:52.293Z,22.88
2022-12-11T16:11:43.375Z,23.05
2022-12-11T16:14:33.356Z,27.30
2022-12-11T16:17:23.416Z,21.35
2022-12-11T16:20:14.946Z,24.30
2022-12-11T16:23:05.760Z,22.35
2022-12-11T16:25:55.966Z,23.17
2022-12-11T16:28:45.901Z,21.95
2022-12-11T16:31:35.847Z,22.67
2022-12-11T16:34:27.076Z,26.08
2022-12-11T16:37:18.107Z,21.55
2022-12-11T16:40:09.267Z,21.88
2022-12-11T16:42:59.452Z,21.35
2022-12-11T16:45:54.765Z,21.73
2022-12-11T16:48:45.653Z,20.90
2022-12-11T16:51:37.022Z,25.33
2022-12-11T16:54:27.117Z,24.02
2022-12-11T16:57:17.385Z,22.60
2022-12-11T17:00:10.151Z,26.95
2022-12-11T17:03:00.581Z,22.70
2022-12-11T17:05:50.813Z,24.38
2022-12-11T17:08:42.717Z,35.00
2022-12-11T17:11:33.129Z,24.30
2022-12-11T17:14:23.975Z,23.55
2022-12-11T17:17:13.816Z,23.98
2022-12-11T17:20:04.126Z,22.95
2022-12-11T17:22:54.154Z,24.48
2022-12-11T17:25:45.338Z,23.83
2022-12-11T17:28:36.544Z,24.27
2022-12-11T17:31:27.279Z,25.48
2022-12-11T17:34:17.810Z,26.58
2022-12-11T17:37:07.727Z,26.48
2022-12-11T17:39:57.621Z,24.10
2022-12-11T17:42:47.928Z,26.25
2022-12-11T17:45:42.721Z,26.00
2022-12-11T17:48:33.184Z,24.48
2022-12-11T17:51:26.283Z,27.55
2022-12-11T17:54:16.001Z,26.95
2022-12-11T17:57:06.805Z,26.85
2022-12-11T17:59:56.612Z,27.50
2022-12-11T18:02:46.917Z,28.13
2022-12-11T18:05:42.973Z,26.95
2022-12-11T18:08:33.275Z,28.23
2022-12-11T18:11:23.841Z,26.60
2022-12-11T18:14:17.143Z,25.40
2022-12-11T18:19:57.781Z,25.10
2022-12-11T18:22:47.596Z,24.92
2022-12-11T18:25:37.641Z,26.38
2022-12-11T18:28:30.182Z,27.73
2022-12-11T18:31:21.520Z,27.80
2022-12-11T18:34:11.736Z,26.83
2022-12-11T18:37:02.437Z,26.73
2022-12-11T18:39:52.630Z,26.27
2022-12-11T18:42:43.011Z,29.42
2022-12-11T18:45:33.472Z,30.23
2022-12-11T18:48:24.148Z,28.58
2022-12-11T18:51:23.608Z,27.45
2022-12-11T18:54:13.986Z,31.55
2022-12-11T18:57:04.523Z,30.60
2022-12-11T18:59:54.596Z,29.05
2022-12-11T19:02:44.684Z,28.70
2022-12-11T19:05:36.053Z,31.55
2022-12-11T19:08:26.547Z,30.27
2022-12-11T19:11:19.089Z,31.52
2022-12-11T19:14:10.009Z,29.08
2022-12-11T19:17:00.693Z,29.15
2022-12-11T19:19:50.658Z,28.45
2022-12-11T19:22:40.566Z,28.20
2022-12-11T19:25:31.752Z,31.17
2022-12-11T19:28:22.012Z,28.58
2022-12-11T19:31:15.306Z,29.80
2022-12-11T19:34:05.476Z,30.35
2022-12-11T19:36:56.225Z,30.35
2022-12-11T19:39:46.527Z,30.17
2022-12-11T19:42:36.594Z,28.40
2022-12-11T19:45:26.987Z,29.63
2022-12-11T19:48:17.144Z,28.92
2022-12-11T19:51:16.028Z,31.25
2022-12-11T19:54:13.725Z,30.23
2022-12-11T19:57:04.224Z,31.52
2022-12-11T19:59:57.315Z,31.55
2022-12-11T20:02:49.009Z,30.17
2022-12-11T20:05:39.735Z,32.40
2022-12-11T20:08:44.228Z,32.55
2022-12-11T20:11:35.499Z,29.35
2022-12-11T20:14:26.597Z,29.67
2022-12-11T20:17:16.890Z,29.38
2022-12-11T20:20:07.599Z,27.55
2022-12-11T20:22:59.317Z,27.15
2022-12-11T20:25:51.464Z,27.33
2022-12-11T20:28:47.850Z,27.77
2022-12-11T20:31:38.025Z,27.98
2022-12-11T20:34:28.343Z,30.50
2022-12-11T20:37:21.048Z,27.92
2022-12-11T20:40:12.850Z,27.60
2022-12-11T20:43:05.488Z,28.65
2022-12-11T20:45:55.705Z,29.98
2022-12-11T20:48:47.072Z,30.70
2022-12-11T20:51:39.066Z,31.77
2022-12-11T20:54:29.348Z,30.65
2022-12-11T20:57:19.575Z,28.00
2022-12-11T21:00:10.378Z,28.38
2022-12-11T21:03:00.719Z,29.17
2022-12-11T21:05:50.646Z,26.98
2022-12-11T21:08:40.571Z,27.70
2022-12-11T21:11:32.029Z,27.55
2022-12-11T21:14:22.644Z,27.20
2022-12-11T21:17:12.947Z,27.20
2022-12-11T21:20:04.400Z,24.60
2022-12-11T21:22:57.410Z,24.30
2022-12-11T21:25:47.704Z,25.07
2022-12-11T21:28:37.830Z,25.65
2022-12-11T21:31:28.843Z,26.08
2022-12-11T21:34:25.093Z,26.25
2022-12-11T21:37:15.864Z,25.50
2022-12-11T21:40:06.869Z,25.73
2022-12-11T21:43:03.343Z,26.05
2022-12-11T21:46:01.672Z,29.60
2022-12-11T21:48:52.934Z,30.20
2022-12-11T21:51:47.224Z,28.20
2022-12-11T21:54:38.145Z,28.55
2022-12-11T21:57:28.118Z,26.65
2022-12-11T22:00:18.243Z,24.92
2022-12-11T22:03:08.419Z,27.90
2022-12-11T22:05:58.727Z,27.27
2022-12-11T22:08:49.449Z,26.10
2022-12-11T22:11:45.942Z,24.27
2022-12-11T22:14:36.761Z,23.85
2022-12-11T22:17:27.001Z,25.55
2022-12-11T22:20:20.747Z,23.45
2022-12-11T22:23:10.887Z,24.00
2022-12-11T22:26:01.106Z,26.13
2022-12-11T22:28:54.466Z,25.05
2022-12-11T22:31:47.521Z,24.98
2022-12-11T22:34:37.453Z,25.20
2022-12-11T22:37:27.478Z,24.10
2022-12-11T22:40:17.883Z,23.02
2022-12-11T22:43:08.222Z,18.10
2022-12-11T22:45:58.318Z,13.85
2022-12-11T22:48:51.412Z,17.40
2022-12-11T22:51:41.603Z,18.90
2022-12-11T22:54:32.022Z,19.27
2022-12-11T22:57:22.194Z,21.42
2022-12-11T23:00:14.152Z,20.30
2022-12-11T23:03:04.254Z,21.48
2022-12-11T23:05:54.961Z,21.15
2022-12-11T23:08:45.161Z,19.35
2022-12-11T23:11:37.507Z,18.52
2022-12-11T23:14:28.156Z,20.00
2022-12-11T23:17:21.631Z,19.77
2022-12-11T23:23:01.856Z,20.60
2022-12-11T23:25:51.850Z,20.20
2022-12-11T23:28:42.349Z,19.97
2022-12-11T23:31:36.830Z,19.88
2022-12-11T23:34:26.839Z,20.08
2022-12-11T23:37:17.081Z,19.63
2022-12-11T23:40:08.989Z,20.48
2022-12-11T23:43:00.051Z,19.00
2022-12-11T23:45:52.411Z,21.50
2022-12-11T23:48:45.481Z,22.85
2022-12-11T23:51:35.508Z,21.42
2022-12-11T23:54:25.639Z,22.40
2022-12-11T23:57:15.678Z,22.80
